createdAt,value
2019-03-10T00:00:45.072Z,100923.05
2019-03-10T00:01:27.757Z,100924.94
2019-03-10T00:02:05.193Z,100916.82
2019-03-10T00:02:42.698Z,100924.05
2019-03-10T00:03:19.043Z,100925.86
2019-03-10T00:03:55.559Z,100929.70
2019-03-10T00:04:31.852Z,100928.56
2019-03-10T00:05:08.911Z,100928.56
2019-03-10T00:05:45.567Z,100930.34
2019-03-10T00:06:21.820Z,100928.43
2019-03-10T00:06:58.170Z,100929.41
2019-03-10T00:07:37.845Z,100931.69
2019-03-10T00:08:14.520Z,100931.69
2019-03-10T00:08:50.819Z,100934.30
2019-03-10T00:09:27.075Z,100930.14
2019-03-10T00:10:03.655Z,100933.32
2019-03-10T00:10:43.001Z,100933.32
2019-03-10T00:11:20.078Z,100932.55
2019-03-10T00:11:56.436Z,100934.78
2019-03-10T00:12:32.704Z,100930.47
2019-03-10T00:13:09.087Z,100941.27
2019-03-10T00:13:45.407Z,100933.42
2019-03-10T00:14:23.643Z,100944.75
2019-03-10T00:14:59.834Z,100944.75
2019-03-10T00:15:36.418Z,100944.75
2019-03-10T00:16:12.871Z,100939.09
2019-03-10T00:16:51.578Z,100942.08
2019-03-10T00:17:27.792Z,100942.14
2019-03-10T00:18:04.276Z,100942.14
2019-03-10T00:18:40.602Z,100943.78
2019-03-10T00:19:17.130Z,100940.31
2019-03-10T00:19:53.602Z,100945.19
2019-03-10T00:20:30.374Z,100945.19
2019-03-10T00:21:08.890Z,100942.23
2019-03-10T00:21:46.688Z,100939.83
2019-03-10T00:22:23.159Z,100940.89
2019-03-10T00:22:59.553Z,100943.08
2019-03-10T00:23:36.072Z,100933.36
2019-03-10T00:24:15.188Z,100944.94
2019-03-10T00:24:54.381Z,100944.94
2019-03-10T00:25:42.085Z,100939.28
2019-03-10T00:26:21.079Z,100939.28
2019-03-10T00:26:58.733Z,100940.91
2019-03-10T00:27:35.152Z,100942.52
2019-03-10T00:28:11.469Z,100934.97
2019-03-10T00:28:49.220Z,100931.98
2019-03-10T00:29:26.637Z,100931.98
2019-03-10T00:30:04.249Z,100936.00
2019-03-10T00:30:40.687Z,100936.58
2019-03-10T00:31:17.975Z,100936.58
2019-03-10T00:31:54.314Z,100929.83
2019-03-10T00:32:30.665Z,100940.24
2019-03-10T00:33:08.075Z,100932.72
2019-03-10T00:33:44.470Z,100946.67
2019-03-10T00:34:22.016Z,100951.98
2019-03-10T00:34:58.480Z,100944.09
2019-03-10T00:35:36.703Z,100944.09
2019-03-10T00:36:15.910Z,100948.63
2019-03-10T00:36:54.732Z,100953.20
2019-03-10T00:37:37.547Z,100946.73
2019-03-10T00:38:13.935Z,100946.19
2019-03-10T00:39:39.694Z,100946.19
2019-03-10T00:41:11.033Z,100952.83
2019-03-10T00:42:06.511Z,100952.83
2019-03-10T00:43:19.253Z,100962.22
2019-03-10T00:44:24.388Z,100960.83
2019-03-10T00:45:41.632Z,100972.34
2019-03-10T00:46:45.740Z,100973.66
2019-03-10T00:48:17.304Z,100976.02
2019-03-10T00:49:37.561Z,100975.32
2019-03-10T00:51:12.073Z,100971.23
2019-03-10T00:52:13.160Z,100971.23
2019-03-10T00:53:01.924Z,100966.08
2019-03-10T00:53:43.774Z,100976.84
2019-03-10T00:54:21.595Z,100981.40
2019-03-10T00:54:57.958Z,100985.89
2019-03-10T00:55:34.327Z,100985.89
2019-03-10T00:56:10.660Z,100983.95
2019-03-10T00:56:46.858Z,100982.50
2019-03-10T00:57:23.318Z,100989.18
2019-03-10T00:58:01.508Z,100980.81
2019-03-10T00:58:38.855Z,100980.81
2019-03-10T00:59:15.023Z,100986.60
2019-03-10T00:59:52.883Z,100993.52
2019-03-10T01:00:30.691Z,100987.27
2019-03-10T01:01:07.001Z,100987.27
2019-03-10T01:01:44.984Z,100992.08
2019-03-10T01:02:21.387Z,100987.68
2019-03-10T01:02:57.810Z,100983.27
2019-03-10T01:03:36.716Z,100993.20
2019-03-10T01:04:13.113Z,100992.03
2019-03-10T01:04:49.468Z,100987.97
2019-03-10T01:05:26.336Z,100988.38
2019-03-10T01:06:04.506Z,100988.38
2019-03-10T01:06:40.962Z,100986.34
2019-03-10T01:07:21.842Z,100986.34
2019-03-10T01:07:58.163Z,100989.55
2019-03-10T01:08:35.500Z,100989.48
2019-03-10T01:09:12.084Z,100986.97
2019-03-10T01:09:50.913Z,100991.34
2019-03-10T01:10:27.838Z,100991.34
2019-03-10T01:11:05.012Z,100983.44
2019-03-10T01:11:42.240Z,100988.78
2019-03-10T01:12:18.659Z,100987.33
2019-03-10T01:12:55.185Z,100991.04
2019-03-10T01:13:32.663Z,100986.37
2019-03-10T01:14:09.286Z,100988.70
2019-03-10T01:14:45.733Z,100989.14
2019-03-10T01:15:24.927Z,100990.64
2019-03-10T01:16:03.693Z,100992.69
2019-03-10T01:16:40.148Z,100994.77
2019-03-10T01:17:16.721Z,100989.48
2019-03-10T01:17:54.205Z,100998.61
2019-03-10T01:18:35.342Z,100993.96
2019-03-10T01:19:13.302Z,101001.73
2019-03-10T01:19:53.236Z,101000.02
2019-03-10T01:20:29.990Z,100998.58
2019-03-10T01:21:07.256Z,101003.33
2019-03-10T01:21:43.676Z,101005.73
2019-03-10T01:22:19.985Z,101006.48
2019-03-10T01:22:56.621Z,101006.42
2019-03-10T01:23:33.464Z,101003.09
2019-03-10T01:24:09.733Z,101007.38
2019-03-10T01:25:10.373Z,101003.31
2019-03-10T01:25:50.159Z,101008.12
2019-03-10T01:26:26.789Z,101007.32
2019-03-10T01:27:03.106Z,101012.69
2019-03-10T01:27:40.670Z,101015.03
2019-03-10T01:28:18.694Z,101010.84
2019-03-10T01:28:54.978Z,101019.47
2019-03-10T01:29:31.583Z,101015.06
2019-03-10T01:30:11.812Z,101024.78
2019-03-10T01:31:07.363Z,101023.36
2019-03-10T01:32:18.119Z,101024.04
2019-03-10T01:33:35.251Z,101021.27
2019-03-10T01:34:47.369Z,101023.60
2019-03-10T01:35:33.829Z,101032.63
2019-03-10T01:36:18.300Z,101032.75
2019-03-10T01:37:02.304Z,101034.42
2019-03-10T01:37:40.612Z,101031.88
2019-03-10T01:38:16.863Z,101033.98
2019-03-10T01:38:53.431Z,101029.59
2019-03-10T01:39:33.905Z,101027.13
2019-03-10T01:40:15.985Z,101038.16
2019-03-10T01:40:53.552Z,101031.34
2019-03-10T01:41:30.357Z,101032.63
2019-03-10T01:42:06.730Z,101030.92
2019-03-10T01:42:43.978Z,101031.91
2019-03-10T01:43:29.865Z,101034.48
2019-03-10T01:44:06.754Z,101037.06
2019-03-10T01:44:45.697Z,101038.62
2019-03-10T01:45:22.636Z,101043.69
2019-03-10T01:46:04.695Z,101044.97
2019-03-10T01:46:43.780Z,101043.79
2019-03-10T01:47:20.102Z,101050.20
2019-03-10T01:47:59.381Z,101049.88
2019-03-10T01:48:39.723Z,101055.22
2019-03-10T01:49:16.014Z,101057.86
2019-03-10T01:49:54.650Z,101054.52
2019-03-10T01:50:36.529Z,101055.20
2019-03-10T01:51:13.333Z,101055.93
2019-03-10T01:51:50.492Z,101063.14
2019-03-10T01:52:27.042Z,101060.06
2019-03-10T01:53:03.334Z,101058.88
2019-03-10T01:53:40.858Z,101059.29
2019-03-10T01:54:17.374Z,101058.34
2019-03-10T01:54:53.735Z,101059.87
2019-03-10T01:55:30.253Z,101065.98
2019-03-10T01:56:06.824Z,101063.99
2019-03-10T01:56:43.507Z,101058.96
2019-03-10T01:57:19.824Z,101059.85
2019-03-10T01:58:10.413Z,101063.56
2019-03-10T01:58:47.492Z,101065.36
2019-03-10T01:59:23.921Z,101066.02
2019-03-10T02:00:00.331Z,101066.09
2019-03-10T02:00:37.837Z,101068.09
2019-03-10T02:01:14.572Z,101064.13
2019-03-10T02:01:51.301Z,101070.38
2019-03-10T02:02:27.590Z,101062.92
2019-03-10T02:03:04.424Z,101063.16
2019-03-10T02:03:40.875Z,101069.01
2019-03-10T02:04:20.057Z,101063.96
2019-03-10T02:04:58.117Z,101062.52
2019-03-10T02:05:35.954Z,101062.20
2019-03-10T02:06:12.545Z,101067.87
2019-03-10T02:06:54.689Z,101063.69
2019-03-10T02:07:32.279Z,101064.17
2019-03-10T02:09:52.824Z,101056.38
2019-03-10T02:10:30.248Z,101057.98
2019-03-10T02:11:09.876Z,101059.68
2019-03-10T02:11:46.951Z,101056.55
2019-03-10T02:12:23.780Z,101056.14
2019-03-10T02:13:00.752Z,101057.98
2019-03-10T02:13:37.866Z,101056.52
2019-03-10T02:14:15.537Z,101054.19
2019-03-10T02:14:53.820Z,101052.50
2019-03-10T02:15:33.299Z,101058.16
2019-03-10T02:16:10.913Z,101058.08
2019-03-10T02:16:52.546Z,101060.06
2019-03-10T02:17:31.199Z,101060.63
2019-03-10T02:18:08.273Z,101064.30
2019-03-10T02:18:45.216Z,101060.36
2019-03-10T02:19:22.163Z,101061.63
2019-03-10T02:19:59.504Z,101061.57
2019-03-10T02:20:36.532Z,101066.84
2019-03-10T02:21:16.176Z,101066.19
2019-03-10T02:21:53.218Z,101063.22
2019-03-10T02:22:30.352Z,101064.08
2019-03-10T02:23:09.537Z,101066.48
2019-03-10T02:23:45.844Z,101062.20
2019-03-10T02:24:24.131Z,101060.45
2019-03-10T02:25:01.187Z,101062.05
2019-03-10T02:25:37.565Z,101059.80
2019-03-10T02:26:14.114Z,101057.33
2019-03-10T02:26:50.538Z,101058.18
2019-03-10T02:27:27.438Z,101065.38
2019-03-10T02:28:06.712Z,101055.83
2019-03-10T02:28:43.752Z,101061.52
2019-03-10T02:29:21.073Z,101057.66
2019-03-10T02:30:00.821Z,101058.13
2019-03-10T02:30:37.852Z,101058.87
2019-03-10T02:31:14.566Z,101062.06
2019-03-10T02:31:51.940Z,101058.87
2019-03-10T02:32:29.362Z,101061.41
2019-03-10T02:33:05.867Z,101060.74
2019-03-10T02:33:42.782Z,101059.14
2019-03-10T02:34:19.968Z,101059.70
2019-03-10T02:34:56.580Z,101064.93
2019-03-10T02:35:33.423Z,101058.72
2019-03-10T02:36:09.950Z,101058.95
2019-03-10T02:36:47.369Z,101059.52
2019-03-10T02:37:27.095Z,101066.95
2019-03-10T02:38:03.963Z,101062.28
2019-03-10T02:38:40.757Z,101065.58
2019-03-10T02:39:21.975Z,101063.08
2019-03-10T02:39:58.338Z,101067.11
2019-03-10T02:40:35.124Z,101068.38
2019-03-10T02:41:11.898Z,101067.72
2019-03-10T02:41:49.735Z,101070.91
2019-03-10T02:42:26.488Z,101073.91
2019-03-10T02:43:04.417Z,101072.68
2019-03-10T02:43:41.779Z,101073.14
2019-03-10T02:44:18.142Z,101074.74
2019-03-10T02:44:56.186Z,101078.08
2019-03-10T02:45:33.192Z,101073.91
2019-03-10T02:46:09.578Z,101068.81
2019-03-10T02:46:48.710Z,101064.72
2019-03-10T02:47:25.944Z,101068.25
2019-03-10T02:48:05.786Z,101070.78
2019-03-10T02:48:43.839Z,101067.05
2019-03-10T02:49:20.880Z,101069.91
2019-03-10T02:49:57.276Z,101073.67
2019-03-10T02:50:36.005Z,101067.91
2019-03-10T02:51:14.280Z,101071.17
2019-03-10T02:51:51.696Z,101070.70
2019-03-10T02:52:29.937Z,101073.44
2019-03-10T02:53:07.873Z,101070.24
2019-03-10T02:53:48.015Z,101070.45
2019-03-10T02:54:28.201Z,101068.15
2019-03-10T02:55:04.766Z,101066.31
2019-03-10T02:55:41.766Z,101068.58
2019-03-10T02:56:18.498Z,101076.54
2019-03-10T02:56:56.555Z,101070.41
2019-03-10T02:57:33.447Z,101069.52
2019-03-10T02:58:09.818Z,101065.42
2019-03-10T02:58:47.336Z,101066.92
2019-03-10T02:59:24.444Z,101066.12
2019-03-10T03:00:00.846Z,101062.25
2019-03-10T03:00:37.782Z,101065.89
2019-03-10T03:01:15.744Z,101067.95
2019-03-10T03:01:52.322Z,101065.78
2019-03-10T03:02:28.668Z,101066.25
2019-03-10T03:03:04.886Z,101064.31
2019-03-10T03:03:41.201Z,101067.05
2019-03-10T03:04:18.988Z,101069.78
2019-03-10T03:04:55.788Z,101076.84
2019-03-10T03:05:32.195Z,101074.11
2019-03-10T03:06:08.864Z,101076.17
2019-03-10T03:06:46.592Z,101075.47
2019-03-10T03:07:23.787Z,101081.23
2019-03-10T03:08:00.144Z,101083.46
2019-03-10T03:08:36.533Z,101086.69
2019-03-10T03:09:13.073Z,101083.39
2019-03-10T03:09:53.886Z,101080.09
2019-03-10T03:10:30.411Z,101079.99
2019-03-10T03:11:07.582Z,101082.39
2019-03-10T03:11:56.318Z,101085.02
2019-03-10T03:12:46.250Z,101078.91
2019-03-10T03:13:24.233Z,101080.41
2019-03-10T03:14:05.203Z,101077.97
2019-03-10T03:14:44.269Z,101078.20
2019-03-10T03:15:21.387Z,101079.56
2019-03-10T03:16:11.561Z,101074.56
2019-03-10T03:16:52.852Z,101078.55
2019-03-10T03:17:29.929Z,101077.08
2019-03-10T03:18:19.302Z,101079.36
2019-03-10T03:18:58.926Z,101075.48
2019-03-10T03:19:48.751Z,101073.78
2019-03-10T03:20:26.416Z,101073.22
2019-03-10T03:21:03.737Z,101072.44
2019-03-10T03:21:43.382Z,101072.09
2019-03-10T03:22:18.409Z,101070.63
2019-03-10T03:22:55.899Z,101065.55
2019-03-10T03:23:32.309Z,101064.87
2019-03-10T03:24:08.871Z,101067.14
2019-03-10T03:24:45.444Z,101067.14
2019-03-10T03:25:22.537Z,101061.67
2019-03-10T03:26:00.065Z,101059.86
2019-03-10T03:26:36.439Z,101060.32
2019-03-10T03:27:15.617Z,101060.21
2019-03-10T03:27:53.416Z,101060.59
2019-03-10T03:28:31.539Z,101061.73
2019-03-10T03:29:07.847Z,101064.47
2019-03-10T03:29:44.208Z,101061.73
2019-03-10T03:30:20.938Z,101064.23
2019-03-10T03:30:58.724Z,101058.09
2019-03-10T03:31:38.733Z,101060.37
2019-03-10T03:32:25.756Z,101055.13
2019-03-10T03:33:02.349Z,101057.19
2019-03-10T03:33:40.661Z,101057.19
2019-03-10T03:34:18.163Z,101054.91
2019-03-10T03:35:17.600Z,101051.95
2019-03-10T03:36:14.428Z,101053.08
2019-03-10T03:36:52.955Z,101051.27
2019-03-10T03:37:29.730Z,101049.59
2019-03-10T03:38:29.400Z,101046.06
2019-03-10T03:39:30.756Z,101046.97
2019-03-10T03:40:07.236Z,101044.02
2019-03-10T03:40:48.974Z,101042.98
2019-03-10T03:41:26.523Z,101041.05
2019-03-10T03:42:07.845Z,101035.81
2019-03-10T03:42:44.520Z,101036.38
2019-03-10T03:43:21.056Z,101036.38
2019-03-10T03:43:57.847Z,101036.50
2019-03-10T03:44:34.204Z,101036.27
2019-03-10T03:45:10.661Z,101036.83
2019-03-10T03:45:47.128Z,101029.43
2019-03-10T03:46:23.483Z,101033.30
2019-03-10T03:47:03.290Z,101036.23
2019-03-10T03:47:39.421Z,101030.11
2019-03-10T03:48:16.151Z,101034.44
2019-03-10T03:48:57.412Z,101033.87
2019-03-10T03:49:34.297Z,101034.45
2019-03-10T03:50:12.360Z,101031.38
2019-03-10T03:50:48.822Z,101029.81
2019-03-10T03:51:28.127Z,101031.17
2019-03-10T03:52:06.783Z,101035.85
2019-03-10T03:52:43.180Z,101028.09
2019-03-10T03:53:19.874Z,101024.91
2019-03-10T03:53:59.197Z,101027.08
2019-03-10T03:54:38.104Z,101032.20
2019-03-10T03:55:19.263Z,101021.95
2019-03-10T03:55:58.297Z,101028.56
2019-03-10T03:56:39.727Z,101025.36
2019-03-10T03:57:26.026Z,101022.29
2019-03-10T03:58:23.705Z,101025.48
2019-03-10T03:59:03.035Z,101020.34
2019-03-10T03:59:39.474Z,101023.09
2019-03-10T04:00:17.592Z,101022.41
2019-03-10T04:01:01.447Z,101022.14
2019-03-10T04:02:06.308Z,101013.86
2019-03-10T04:02:48.561Z,101015.30
2019-03-10T04:03:24.947Z,101010.29
2019-03-10T04:04:01.446Z,101013.36
2019-03-10T04:04:38.168Z,101016.09
2019-03-10T04:05:14.759Z,101017.80
2019-03-10T04:05:52.127Z,101019.83
2019-03-10T04:06:29.577Z,101015.98
2019-03-10T04:07:07.178Z,101009.27
2019-03-10T04:07:53.383Z,101008.70
2019-03-10T04:08:31.348Z,101012.12
2019-03-10T04:09:10.227Z,100999.58
2019-03-10T04:09:50.950Z,101001.89
2019-03-10T04:10:31.144Z,101002.00
2019-03-10T04:11:08.344Z,100995.28
2019-03-10T04:11:45.618Z,101002.45
2019-03-10T04:12:24.706Z,100990.03
2019-03-10T04:13:19.421Z,100988.89
2019-03-10T04:14:02.454Z,100990.72
2019-03-10T04:14:38.936Z,100996.98
2019-03-10T04:15:15.320Z,100992.77
2019-03-10T04:15:55.223Z,100992.77
2019-03-10T04:16:31.691Z,100993.34
2019-03-10T04:17:10.481Z,100992.87
2019-03-10T04:17:46.842Z,100988.69
2019-03-10T04:18:23.245Z,100991.65
2019-03-10T04:19:00.987Z,100991.65
2019-03-10T04:19:37.560Z,100990.51
2019-03-10T04:20:17.671Z,100989.37
2019-03-10T04:20:55.911Z,100986.86
2019-03-10T04:21:34.624Z,100992.91
2019-03-10T04:22:11.931Z,100985.72
2019-03-10T04:22:49.949Z,100989.59
2019-03-10T04:23:27.755Z,100982.75
2019-03-10T04:24:04.781Z,100988.59
2019-03-10T04:24:41.212Z,100982.98
2019-03-10T04:25:28.586Z,100983.92
2019-03-10T04:26:05.317Z,100983.45
2019-03-10T04:26:43.907Z,100985.95
2019-03-10T04:27:21.320Z,100988.12
2019-03-10T04:27:58.984Z,100983.09
2019-03-10T04:28:37.212Z,100983.45
2019-03-10T04:29:16.515Z,100981.84
2019-03-10T04:30:16.603Z,100983.92
2019-03-10T04:30:54.102Z,100982.73
2019-03-10T04:31:34.470Z,100980.70
2019-03-10T04:32:10.790Z,100980.48
2019-03-10T04:32:47.191Z,100982.98
2019-03-10T04:33:24.364Z,100979.80
2019-03-10T04:34:03.204Z,100975.56
2019-03-10T04:41:48.007Z,100976.37
2019-03-10T04:42:25.738Z,100970.66
2019-03-10T04:43:04.472Z,100975.67
2019-03-10T04:43:43.791Z,100966.56
2019-03-10T04:44:22.491Z,100970.69
2019-03-10T04:44:59.982Z,100971.25
2019-03-10T04:45:38.972Z,100971.36
2019-03-10T04:46:16.614Z,100969.87
2019-03-10T04:46:54.840Z,100975.33
2019-03-10T04:47:32.417Z,100971.01
2019-03-10T04:48:09.092Z,100963.25
2019-03-10T04:48:45.806Z,100963.34
2019-03-10T04:49:22.141Z,100965.29
2019-03-10T04:50:02.168Z,100960.14
2019-03-10T04:50:45.015Z,100965.19
2019-03-10T04:51:22.534Z,100964.84
2019-03-10T04:52:02.147Z,100971.12
2019-03-10T04:52:46.382Z,100961.75
2019-03-10T04:53:24.251Z,100962.43
2019-03-10T04:54:06.195Z,100964.61
2019-03-10T04:54:55.621Z,100968.15
2019-03-10T04:55:44.784Z,100965.28
2019-03-10T04:56:39.123Z,100964.69
2019-03-10T04:57:20.588Z,100969.24
2019-03-10T04:58:04.160Z,100964.14
2019-03-10T04:58:46.415Z,100966.55
2019-03-10T04:59:40.559Z,100961.75
2019-03-10T05:00:17.077Z,100963.80
2019-03-10T05:01:00.124Z,100968.62
2019-03-10T05:01:38.015Z,100965.89
2019-03-10T05:02:16.657Z,100963.17
2019-03-10T05:02:54.012Z,100961.32
2019-03-10T05:03:30.514Z,100960.84
2019-03-10T05:04:07.119Z,100958.36
2019-03-10T05:04:43.701Z,100960.16
2019-03-10T05:05:23.531Z,100959.25
2019-03-10T05:06:10.441Z,100954.23
2019-03-10T05:06:56.778Z,100958.11
2019-03-10T05:07:33.517Z,100961.52
2019-03-10T05:08:10.145Z,100958.33
2019-03-10T05:08:47.700Z,100952.63
2019-03-10T05:09:24.289Z,100958.87
2019-03-10T05:10:02.029Z,100961.58
2019-03-10T05:10:38.408Z,100964.41
2019-03-10T05:11:16.676Z,100960.49
2019-03-10T05:11:56.309Z,100963.39
2019-03-10T05:12:32.729Z,100959.41
2019-03-10T05:13:09.274Z,100961.91
2019-03-10T05:13:52.181Z,100966.08
2019-03-10T05:14:29.837Z,100959.98
2019-03-10T05:15:07.642Z,100965.23
2019-03-10T05:15:57.621Z,100957.53
2019-03-10T05:16:35.608Z,100962.27
2019-03-10T05:17:14.569Z,100950.20
2019-03-10T05:17:51.832Z,100960.14
2019-03-10T05:18:28.306Z,100955.17
2019-03-10T05:19:07.501Z,100955.55
2019-03-10T05:19:45.175Z,100951.30
2019-03-10T05:20:26.436Z,100949.98
2019-03-10T05:21:04.041Z,100950.95
2019-03-10T05:21:40.629Z,100943.73
2019-03-10T05:22:16.982Z,100950.64
2019-03-10T05:22:56.318Z,100948.24
2019-03-10T05:23:46.172Z,100944.60
2019-03-10T05:24:32.085Z,100948.17
2019-03-10T05:25:08.602Z,100952.59
2019-03-10T05:25:44.989Z,100945.69
2019-03-10T05:26:21.605Z,100941.66
2019-03-10T05:27:00.939Z,100943.37
2019-03-10T05:27:41.173Z,100945.48
2019-03-10T05:28:17.690Z,100941.44
2019-03-10T05:28:55.540Z,100937.80
2019-03-10T05:29:33.144Z,100938.31
2019-03-10T05:30:13.413Z,100940.33
2019-03-10T05:30:50.035Z,100938.73
2019-03-10T05:31:26.469Z,100936.42
2019-03-10T05:32:05.478Z,100932.43
2019-03-10T05:32:42.126Z,100930.92
2019-03-10T05:33:22.703Z,100932.44
2019-03-10T05:34:00.845Z,100930.36
2019-03-10T05:34:38.540Z,100929.89
2019-03-10T05:35:18.776Z,100928.47
2019-03-10T05:35:56.398Z,100922.55
2019-03-10T05:36:44.511Z,100929.32
2019-03-10T05:37:21.415Z,100927.66
2019-03-10T05:38:16.811Z,100924.95
2019-03-10T05:38:56.099Z,100921.20
2019-03-10T05:39:38.273Z,100924.47
2019-03-10T05:40:17.766Z,100923.19
2019-03-10T05:40:54.457Z,100924.55
2019-03-10T05:41:30.909Z,100920.23
2019-03-10T05:42:07.316Z,100923.36
2019-03-10T05:42:47.218Z,100922.72
2019-03-10T05:43:25.983Z,100917.68
2019-03-10T05:44:02.488Z,100915.28
2019-03-10T05:44:40.136Z,100916.97
2019-03-10T05:45:19.112Z,100905.52
2019-03-10T05:45:57.778Z,100910.40
2019-03-10T05:46:34.133Z,100906.55
2019-03-10T05:47:13.431Z,100902.95
2019-03-10T05:47:51.531Z,100904.31
2019-03-10T05:48:30.200Z,100895.91
2019-03-10T05:49:06.542Z,100897.74
2019-03-10T05:49:42.937Z,100897.74
2019-03-10T05:50:19.187Z,100893.90
2019-03-10T05:50:55.875Z,100895.50
2019-03-10T05:51:32.130Z,100897.09
2019-03-10T05:52:10.608Z,100888.45
2019-03-10T05:52:52.473Z,100887.98
2019-03-10T05:53:29.432Z,100889.81
2019-03-10T05:54:07.388Z,100884.61
2019-03-10T05:54:43.738Z,100881.66
2019-03-10T05:55:21.049Z,100886.20
2019-03-10T05:55:58.504Z,100884.05
2019-03-10T05:56:40.240Z,100885.41
2019-03-10T05:57:21.125Z,100886.20
2019-03-10T05:58:00.352Z,100880.20
2019-03-10T05:58:39.509Z,100879.88
2019-03-10T05:59:15.885Z,100876.27
2019-03-10T05:59:54.293Z,100876.27
2019-03-10T06:00:42.019Z,100873.31
2019-03-10T06:01:10.272Z,100871.48
2019-03-10T06:01:47.315Z,100874.20
2019-03-10T06:02:23.749Z,100877.22
2019-03-10T06:03:01.049Z,100874.98
2019-03-10T06:03:37.740Z,100873.05
2019-03-10T06:04:14.099Z,100875.89
2019-03-10T06:04:50.439Z,100872.92
2019-03-10T06:05:27.427Z,100864.55
2019-03-10T06:06:03.738Z,100860.61
2019-03-10T06:06:42.378Z,100863.03
2019-03-10T06:07:19.210Z,100864.41
2019-03-10T06:08:15.469Z,100859.63
2019-03-10T06:08:54.452Z,100863.42
2019-03-10T06:09:37.589Z,100856.23
2019-03-10T06:10:16.315Z,100859.16
2019-03-10T06:10:53.807Z,100852.05
2019-03-10T06:11:34.146Z,100852.75
2019-03-10T06:12:15.193Z,100849.42
2019-03-10T06:12:52.827Z,100847.06
2019-03-10T06:13:29.564Z,100844.77
2019-03-10T06:14:07.378Z,100850.64
2019-03-10T06:14:45.296Z,100846.75
2019-03-10T06:15:21.760Z,100839.63
2019-03-10T06:15:58.528Z,100847.27
2019-03-10T06:16:38.110Z,100838.62
2019-03-10T06:17:14.764Z,100845.77
2019-03-10T06:17:51.502Z,100840.08
2019-03-10T06:18:28.556Z,100843.37
2019-03-10T06:19:13.551Z,100840.17
2019-03-10T06:19:50.779Z,100844.92
2019-03-10T06:20:35.037Z,100833.92
2019-03-10T06:21:16.974Z,100836.28
2019-03-10T06:21:58.923Z,100835.07
2019-03-10T06:22:35.468Z,100833.48
2019-03-10T06:23:13.188Z,100833.41
2019-03-10T06:24:00.378Z,100839.47
2019-03-10T06:24:42.577Z,100832.59
2019-03-10T06:25:22.264Z,100827.74
2019-03-10T06:25:58.822Z,100832.30
2019-03-10T06:26:35.203Z,100830.45
2019-03-10T06:27:13.521Z,100827.34
2019-03-10T06:27:53.326Z,100825.59
2019-03-10T06:28:30.256Z,100822.48
2019-03-10T06:29:09.606Z,100820.30
2019-03-10T06:29:50.981Z,100826.00
2019-03-10T06:30:38.496Z,100821.42
2019-03-10T06:31:16.107Z,100826.29
2019-03-10T06:31:52.557Z,100813.36
2019-03-10T06:32:45.617Z,100822.67
2019-03-10T06:33:22.593Z,100816.20
2019-03-10T06:34:00.087Z,100808.67
2019-03-10T06:34:36.861Z,100804.57
2019-03-10T06:35:25.908Z,100804.52
2019-03-10T06:36:22.607Z,100805.30
2019-03-10T06:37:06.222Z,100798.95
2019-03-10T06:37:44.794Z,100796.73
2019-03-10T06:38:25.350Z,100791.03
2019-03-10T06:39:01.999Z,100792.81
2019-03-10T06:39:40.486Z,100796.51
2019-03-10T06:40:19.621Z,100792.45
2019-03-10T06:40:56.116Z,100793.86
2019-03-10T06:41:32.811Z,100795.95
2019-03-10T06:42:12.150Z,100795.72
2019-03-10T06:43:08.241Z,100790.96
2019-03-10T06:43:51.277Z,100781.97
2019-03-10T06:44:36.295Z,100782.27
2019-03-10T06:45:15.120Z,100781.76
2019-03-10T06:45:53.085Z,100781.52
2019-03-10T06:46:32.842Z,100777.42
2019-03-10T06:47:09.644Z,100776.34
2019-03-10T06:47:49.135Z,100770.70
2019-03-10T06:48:26.452Z,100775.75
2019-03-10T06:49:08.456Z,100775.41
2019-03-10T06:49:47.070Z,100780.77
2019-03-10T06:50:23.609Z,100781.03
2019-03-10T06:51:01.682Z,100776.13
2019-03-10T06:51:37.890Z,100772.63
2019-03-10T06:52:14.390Z,100769.64
2019-03-10T06:52:50.751Z,100773.28
2019-03-10T06:53:29.198Z,100771.44
2019-03-10T06:54:05.820Z,100766.20
2019-03-10T06:54:43.156Z,100765.41
2019-03-10T06:55:21.202Z,100764.03
2019-03-10T06:55:57.626Z,100770.25
2019-03-10T06:56:35.579Z,100764.79
2019-03-10T06:57:12.046Z,100762.70
2019-03-10T06:57:48.678Z,100762.89
2019-03-10T06:58:29.573Z,100755.83
2019-03-10T06:59:06.631Z,100755.26
2019-03-10T06:59:44.553Z,100760.83
2019-03-10T07:00:20.890Z,100754.58
2019-03-10T07:00:57.442Z,100753.03
2019-03-10T07:01:34.401Z,100752.73
2019-03-10T07:02:11.223Z,100740.27
2019-03-10T07:02:49.532Z,100733.32
2019-03-10T07:03:28.198Z,100743.22
2019-03-10T07:04:06.039Z,100741.42
2019-03-10T07:04:45.361Z,100746.86
2019-03-10T07:05:24.764Z,100743.92
2019-03-10T07:06:04.686Z,100746.42
2019-03-10T07:06:42.819Z,100747.59
2019-03-10T07:07:21.800Z,100740.53
2019-03-10T07:07:59.909Z,100741.89
2019-03-10T07:08:36.577Z,100744.29
2019-03-10T07:09:19.230Z,100737.45
2019-03-10T07:09:57.178Z,100740.98
2019-03-10T07:10:39.504Z,100734.47
2019-03-10T07:11:23.153Z,100736.33
2019-03-10T07:12:02.764Z,100731.88
2019-03-10T07:13:43.531Z,100729.14
2019-03-10T07:14:46.078Z,100722.98
2019-03-10T07:15:45.185Z,100727.64
2019-03-10T07:16:25.280Z,100724.58
2019-03-10T07:17:11.338Z,100728.66
2019-03-10T07:18:24.211Z,100724.55
2019-03-10T07:19:07.550Z,100721.37
2019-03-10T07:19:51.413Z,100726.84
2019-03-10T07:20:28.691Z,100725.92
2019-03-10T07:21:05.115Z,100721.37
2019-03-10T07:22:00.557Z,100725.37
2019-03-10T07:22:39.404Z,100724.56
2019-03-10T07:23:17.297Z,100717.83
2019-03-10T07:23:54.940Z,100715.63
2019-03-10T07:24:34.407Z,100717.83
2019-03-10T07:25:13.678Z,100718.37
2019-03-10T07:26:07.329Z,100720.18
2019-03-10T07:26:44.642Z,100718.81
2019-03-10T07:27:28.217Z,100721.65
2019-03-10T07:28:12.030Z,100717.45
2019-03-10T07:28:59.531Z,100719.71
2019-03-10T07:29:43.061Z,100721.30
2019-03-10T07:30:55.156Z,100717.20
2019-03-10T07:32:04.504Z,100718.12
2019-03-10T07:32:59.681Z,100714.46
2019-03-10T07:33:57.643Z,100717.55
2019-03-10T07:34:55.767Z,100720.19
2019-03-10T07:35:50.797Z,100717.77
2019-03-10T07:36:47.239Z,100712.65
2019-03-10T07:37:55.129Z,100707.41
2019-03-10T07:38:54.535Z,100702.38
2019-03-10T07:39:50.602Z,100700.66
2019-03-10T07:40:49.787Z,100696.20
2019-03-10T07:41:49.262Z,100694.36
2019-03-10T07:42:41.352Z,100691.30
2019-03-10T07:43:41.689Z,100696.87
2019-03-10T07:44:29.813Z,100692.98
2019-03-10T07:45:30.051Z,100694.13
2019-03-10T07:46:28.560Z,100694.22
2019-03-10T07:47:27.565Z,100693.43
2019-03-10T07:48:25.338Z,100691.63
2019-03-10T07:49:08.409Z,100694.17
2019-03-10T07:50:05.843Z,100693.25
2019-03-10T07:51:07.674Z,100694.39
2019-03-10T07:52:20.264Z,100694.84